createdAt,value
2024-04-26T00:00:25.376Z,0.30
2024-04-26T00:02:52.446Z,0.20
2024-04-26T00:05:19.463Z,0.30
2024-04-26T00:07:46.303Z,0.30
2024-04-26T00:10:13.718Z,0.30
2024-04-26T00:12:43.526Z,0.30
2024-04-26T00:15:10.428Z,0.30
2024-04-26T00:17:37.659Z,0.40
2024-04-26T00:20:05.578Z,0.40
2024-04-26T00:22:32.734Z,0.40
2024-04-26T00:24:59.603Z,0.40
2024-04-26T00:27:26.488Z,0.40
2024-04-26T00:29:53.417Z,0.30
2024-04-26T00:32:20.418Z,0.30
2024-04-26T00:34:47.332Z,0.30
2024-04-26T00:37:14.395Z,0.40
2024-04-26T00:39:41.468Z,0.40
2024-04-26T00:42:08.803Z,0.40
2024-04-26T00:44:35.800Z,0.40
2024-04-26T00:47:03.063Z,0.40
2024-04-26T00:49:30.067Z,0.40
2024-04-26T00:51:58.126Z,0.40
2024-04-26T00:54:26.421Z,0.38
2024-04-26T00:57:03.068Z,0.30
2024-04-26T00:59:30.847Z,0.30
2024-04-26T01:01:57.917Z,0.30
2024-04-26T01:04:25.121Z,0.30
2024-04-26T01:06:52.320Z,0.40
2024-04-26T01:09:19.901Z,0.40
2024-04-26T01:11:46.912Z,0.40
2024-04-26T01:14:13.932Z,0.40
2024-04-26T01:16:40.843Z,0.40
2024-04-26T01:19:12.186Z,0.30
2024-04-26T01:21:39.234Z,0.30
2024-04-26T01:24:07.313Z,0.30
2024-04-26T01:26:34.205Z,0.30
2024-04-26T01:29:01.088Z,0.30
2024-04-26T01:31:27.988Z,0.30
2024-04-26T01:33:54.950Z,0.40
2024-04-26T01:36:21.802Z,0.40
2024-04-26T01:38:48.751Z,0.40
2024-04-26T01:41:15.623Z,0.40
2024-04-26T01:43:42.574Z,0.40
2024-04-26T01:46:09.518Z,0.35
2024-04-26T01:48:36.694Z,0.30
2024-04-26T01:51:04.163Z,0.30
2024-04-26T01:53:31.174Z,0.30
2024-04-26T01:55:58.074Z,0.30
2024-04-26T01:58:24.916Z,0.40
2024-04-26T02:00:51.928Z,0.40
2024-04-26T02:03:18.994Z,0.40
2024-04-26T02:05:45.947Z,0.40
2024-04-26T02:08:12.823Z,0.40
2024-04-26T02:10:39.759Z,0.30
2024-04-26T02:13:06.586Z,0.30
2024-04-26T02:15:33.477Z,0.30
2024-04-26T02:18:00.533Z,0.30
2024-04-26T02:20:27.566Z,0.30
2024-04-26T02:22:54.453Z,0.30
2024-04-26T02:25:21.716Z,0.40
2024-04-26T02:27:48.540Z,0.40
2024-04-26T02:30:15.608Z,0.40
2024-04-26T02:32:43.074Z,0.40
2024-04-26T02:35:10.246Z,0.40
2024-04-26T02:37:37.067Z,0.30
2024-04-26T02:40:04.099Z,0.40
2024-04-26T02:42:30.891Z,0.30
2024-04-26T02:44:57.788Z,0.20
2024-04-26T02:47:26.178Z,0.30
2024-04-26T02:49:53.161Z,0.30
2024-04-26T02:52:20.035Z,0.30
2024-04-26T02:54:46.887Z,0.30
2024-04-26T02:57:13.759Z,0.40
2024-04-26T02:59:40.647Z,0.40
2024-04-26T03:02:07.603Z,0.40
2024-04-26T03:04:34.655Z,0.40
2024-04-26T03:07:01.473Z,0.40
2024-04-26T03:09:28.311Z,0.43
2024-04-26T03:11:55.423Z,0.30
2024-04-26T03:14:22.441Z,0.30
2024-04-26T03:16:50.947Z,0.30
2024-04-26T03:19:18.085Z,0.30
2024-04-26T03:21:46.402Z,0.30
2024-04-26T03:24:13.736Z,0.40
2024-04-26T03:26:40.789Z,0.32
2024-04-26T03:29:07.783Z,0.40
2024-04-26T03:31:34.711Z,0.40
2024-04-26T03:34:01.772Z,0.40
2024-04-26T03:36:28.699Z,0.40
2024-04-26T03:38:55.687Z,0.40
2024-04-26T03:41:22.944Z,0.30
2024-04-26T03:43:49.953Z,0.30
2024-04-26T03:46:16.804Z,0.30
2024-04-26T03:48:48.524Z,0.30
2024-04-26T03:51:15.662Z,0.30
2024-04-26T03:53:43.152Z,0.40
2024-04-26T03:56:10.041Z,0.40
2024-04-26T03:58:40.854Z,0.40
2024-04-26T04:01:07.949Z,0.40
2024-04-26T04:03:35.032Z,0.40
2024-04-26T04:06:02.213Z,0.40
2024-04-26T04:08:29.381Z,0.40
2024-04-26T04:10:56.191Z,0.40
2024-04-26T04:13:23.265Z,0.30
2024-04-26T04:15:50.086Z,0.30
2024-04-26T04:18:17.221Z,0.30
2024-04-26T04:20:44.290Z,0.30
2024-04-26T04:23:11.215Z,0.30
2024-04-26T04:25:38.254Z,0.30
2024-04-26T04:28:05.523Z,0.30
2024-04-26T04:30:32.542Z,0.30
2024-04-26T04:32:59.648Z,0.40
2024-04-26T04:35:26.709Z,0.40
2024-04-26T04:37:53.571Z,0.32
2024-04-26T04:40:20.391Z,0.30
2024-04-26T04:42:47.248Z,0.40
2024-04-26T04:45:16.164Z,0.40
2024-04-26T04:47:43.259Z,0.40
2024-04-26T04:50:10.531Z,0.40
2024-04-26T04:52:37.347Z,0.35
2024-04-26T04:55:04.488Z,0.30
2024-04-26T04:57:31.340Z,0.30
2024-04-26T04:59:58.359Z,0.30
2024-04-26T05:02:25.495Z,0.30
2024-04-26T05:04:52.871Z,0.30
2024-04-26T05:07:19.758Z,0.30
2024-04-26T05:09:46.697Z,0.30
2024-04-26T05:12:14.679Z,0.28
2024-04-26T05:14:42.672Z,0.30
2024-04-26T05:17:09.777Z,0.30
2024-04-26T05:19:36.823Z,0.35
2024-04-26T05:22:03.843Z,0.30
2024-04-26T05:24:32.225Z,0.38
2024-04-26T05:27:00.433Z,0.30
2024-04-26T05:29:27.661Z,0.30
2024-04-26T05:31:54.689Z,0.30
2024-04-26T05:34:21.820Z,0.30
2024-04-26T05:36:48.803Z,0.30
2024-04-26T05:39:15.790Z,0.30
2024-04-26T05:41:43.117Z,0.30
2024-04-26T05:44:11.021Z,0.20
2024-04-26T05:46:37.819Z,0.30
2024-04-26T05:49:04.839Z,0.20
2024-04-26T05:51:31.890Z,0.20
2024-04-26T05:53:59.609Z,0.28
2024-04-26T05:56:26.613Z,0.30
2024-04-26T05:58:53.577Z,0.30
2024-04-26T06:01:20.727Z,0.30
2024-04-26T06:03:47.911Z,0.30
2024-04-26T06:06:15.693Z,0.25
2024-04-26T06:08:42.692Z,0.20
2024-04-26T06:11:09.806Z,0.30
2024-04-26T06:13:36.845Z,0.30
2024-04-26T06:16:06.219Z,0.20
2024-04-26T06:18:33.784Z,0.20
2024-04-26T06:23:41.740Z,0.30
2024-04-26T06:26:10.641Z,0.20
2024-04-26T06:28:40.704Z,0.20
2024-04-26T06:31:07.520Z,0.30
2024-04-26T06:33:34.459Z,0.30
2024-04-26T06:36:01.438Z,0.30
2024-04-26T06:38:28.585Z,0.20
2024-04-26T06:40:56.699Z,0.30
2024-04-26T06:43:23.601Z,0.30
2024-04-26T06:45:50.398Z,0.20
2024-04-26T06:48:17.516Z,0.20
2024-04-26T06:50:45.731Z,0.30
2024-04-26T06:53:16.811Z,0.20
2024-04-26T06:55:43.698Z,0.20
2024-04-26T06:58:10.564Z,0.20
2024-04-26T07:00:37.591Z,0.20
2024-04-26T07:03:04.842Z,0.20
2024-04-26T07:05:32.014Z,0.30
2024-04-26T07:07:58.909Z,0.20
2024-04-26T07:10:25.779Z,0.20
2024-04-26T07:12:53.315Z,0.20
2024-04-26T07:15:20.243Z,0.13
2024-04-26T07:17:49.740Z,0.20
2024-04-26T07:20:17.978Z,0.10
2024-04-26T07:22:54.042Z,0.20
2024-04-26T07:25:28.730Z,0.22
2024-04-26T07:27:55.592Z,0.10
2024-04-26T07:30:22.617Z,0.20
2024-04-26T07:32:49.823Z,0.10
2024-04-26T07:35:16.749Z,0.10
2024-04-26T07:37:43.591Z,0.20
2024-04-26T07:40:10.776Z,0.20
2024-04-26T07:42:37.614Z,0.10
2024-04-26T07:45:04.841Z,0.20
2024-04-26T07:47:31.908Z,0.20
2024-04-26T07:49:59.175Z,0.10
2024-04-26T07:52:26.311Z,0.10
2024-04-26T07:54:56.369Z,0.20
2024-04-26T07:57:26.398Z,0.20
2024-04-26T07:59:54.195Z,0.10
2024-04-26T08:02:21.362Z,0.20
2024-04-26T08:04:48.361Z,0.20
2024-04-26T08:07:16.748Z,0.17
2024-04-26T08:09:43.664Z,0.10
2024-04-26T08:12:11.544Z,0.20
2024-04-26T08:14:38.687Z,0.20
2024-04-26T08:17:05.940Z,0.13
2024-04-26T08:19:33.221Z,0.10
2024-04-26T08:22:00.085Z,0.10
2024-04-26T08:24:26.918Z,0.10
2024-04-26T08:26:53.841Z,0.17
2024-04-26T08:29:21.192Z,0.20
2024-04-26T08:31:48.177Z,0.10
2024-04-26T08:34:15.708Z,0.10
2024-04-26T08:36:43.068Z,0.10
2024-04-26T08:39:10.164Z,0.10
2024-04-26T08:41:37.468Z,0.10
2024-04-26T08:44:05.865Z,0.20
2024-04-26T08:46:44.337Z,0.20
2024-04-26T08:49:19.025Z,0.10
2024-04-26T08:51:51.538Z,0.10
2024-04-26T08:54:19.811Z,0.10
2024-04-26T08:56:48.845Z,0.10
2024-04-26T08:59:19.214Z,0.10
2024-04-26T09:01:47.571Z,0.10
2024-04-26T09:04:14.705Z,0.10
2024-04-26T09:06:41.689Z,0.10
2024-04-26T09:09:08.591Z,0.10
2024-04-26T09:11:36.686Z,0.20
2024-04-26T09:14:03.593Z,0.20
2024-04-26T09:16:32.514Z,0.10
2024-04-26T09:18:59.587Z,0.20
2024-04-26T09:21:26.614Z,0.10
2024-04-26T09:23:53.627Z,0.10
2024-04-26T09:26:24.915Z,0.10
2024-04-26T09:28:52.339Z,0.20
2024-04-26T09:31:19.410Z,0.20
2024-04-26T09:33:52.230Z,0.20
2024-04-26T09:36:23.329Z,0.10
2024-04-26T09:38:56.002Z,0.10
2024-04-26T09:41:24.399Z,0.20
2024-04-26T09:43:52.225Z,0.20
2024-04-26T09:46:24.208Z,0.13
2024-04-26T09:48:51.425Z,0.10
2024-04-26T09:51:19.035Z,0.10
2024-04-26T09:53:46.604Z,0.10
2024-04-26T09:56:15.759Z,0.10
2024-04-26T09:58:44.265Z,0.10
2024-04-26T10:01:14.395Z,0.10
2024-04-26T10:03:45.106Z,0.10
2024-04-26T10:06:14.154Z,0.10
2024-04-26T10:08:42.388Z,0.10
2024-04-26T10:11:25.063Z,0.10
2024-04-26T10:13:58.143Z,0.10
2024-04-26T10:16:34.184Z,0.10
2024-04-26T10:19:01.461Z,0.10
2024-04-26T10:21:28.924Z,0.10
2024-04-26T10:24:00.576Z,0.10
2024-04-26T10:26:28.308Z,0.10
2024-04-26T10:28:56.416Z,0.10
2024-04-26T10:31:30.636Z,0.10
2024-04-26T10:33:59.384Z,0.10
2024-04-26T10:36:26.478Z,0.10
2024-04-26T10:38:53.745Z,0.10
2024-04-26T10:41:21.921Z,0.10
2024-04-26T10:43:54.237Z,0.10
2024-04-26T10:46:22.045Z,0.10
2024-04-26T10:48:49.262Z,0.10
2024-04-26T10:51:18.737Z,0.10
2024-04-26T10:53:46.886Z,0.10
2024-04-26T10:56:20.228Z,0.10
2024-04-26T10:58:47.686Z,0.10
2024-04-26T11:01:22.623Z,0.10
2024-04-26T11:03:57.833Z,0.10
2024-04-26T11:06:28.270Z,0.10
2024-04-26T11:09:08.667Z,0.10
2024-04-26T11:11:36.342Z,0.10
2024-04-26T11:14:03.335Z,0.10
2024-04-26T11:16:30.840Z,0.10
2024-04-26T11:18:58.105Z,0.10
2024-04-26T11:21:26.954Z,0.10
2024-04-26T11:23:53.962Z,0.10
2024-04-26T11:26:20.821Z,0.10
2024-04-26T11:28:47.687Z,0.10
2024-04-26T11:31:14.538Z,0.10
2024-04-26T11:33:44.575Z,0.10
2024-04-26T11:36:12.934Z,0.10
2024-04-26T11:38:40.119Z,0.10
2024-04-26T11:41:07.860Z,0.10
2024-04-26T11:43:34.973Z,0.10
2024-04-26T11:46:01.985Z,0.10
2024-04-26T11:48:29.033Z,0.10
2024-04-26T11:50:56.476Z,0.10
2024-04-26T11:53:23.558Z,0.10
2024-04-26T11:55:50.578Z,0.10
2024-04-26T11:58:17.510Z,0.10
2024-04-26T12:00:44.631Z,0.10
2024-04-26T12:03:14.030Z,0.10
2024-04-26T12:05:44.722Z,0.10
2024-04-26T12:08:11.869Z,0.10
2024-04-26T12:10:38.762Z,0.10
2024-04-26T12:13:05.579Z,0.10
2024-04-26T12:15:32.581Z,0.10
2024-04-26T12:17:59.509Z,0.10
2024-04-26T12:20:27.099Z,0.10
2024-04-26T12:22:54.683Z,0.10
2024-04-26T12:25:21.590Z,0.05
2024-04-26T12:27:48.444Z,0.10
2024-04-26T12:30:16.493Z,0.10
2024-04-26T12:32:43.587Z,0.10
2024-04-26T12:35:10.641Z,0.10
2024-04-26T12:37:37.951Z,0.10
2024-04-26T12:40:06.057Z,0.10
2024-04-26T12:42:32.958Z,0.10
2024-04-26T12:44:59.932Z,0.10
2024-04-26T12:47:28.126Z,0.10
2024-04-26T12:49:55.225Z,0.10
2024-04-26T12:52:23.025Z,0.10
2024-04-26T12:54:49.885Z,0.10
2024-04-26T12:57:16.862Z,0.10
2024-04-26T12:59:47.029Z,0.10
2024-04-26T13:02:13.977Z,0.10
2024-04-26T13:04:40.936Z,0.10
2024-04-26T13:07:07.883Z,0.10
2024-04-26T13:09:39.064Z,0.10
2024-04-26T13:12:06.994Z,0.10
2024-04-26T13:14:35.794Z,0.10
2024-04-26T13:17:05.123Z,0.10
2024-04-26T13:19:32.354Z,0.10
2024-04-26T13:21:59.931Z,0.10
2024-04-26T13:24:26.913Z,0.10
2024-04-26T13:26:53.834Z,0.10
2024-04-26T13:29:23.037Z,0.10
2024-04-26T13:31:50.866Z,0.10
2024-04-26T13:34:19.793Z,0.10
2024-04-26T13:36:48.025Z,0.10
2024-04-26T13:39:15.334Z,0.10
2024-04-26T13:41:43.206Z,0.10
2024-04-26T13:44:16.117Z,0.10
2024-04-26T13:46:43.789Z,0.10
2024-04-26T13:49:18.312Z,0.10
2024-04-26T13:51:45.572Z,0.10
2024-04-26T13:54:13.219Z,0.00
2024-04-26T13:56:40.117Z,0.10
2024-04-26T13:59:06.990Z,0.10
2024-04-26T14:01:33.890Z,0.10
2024-04-26T14:04:01.125Z,0.00
2024-04-26T14:06:28.389Z,0.10
2024-04-26T14:08:55.382Z,0.10
2024-04-26T14:11:22.301Z,0.10
2024-04-26T14:13:49.182Z,0.10
2024-04-26T14:16:18.334Z,0.10
2024-04-26T14:18:47.808Z,0.10
2024-04-26T14:21:18.236Z,0.10
2024-04-26T14:23:46.089Z,0.10
2024-04-26T14:26:19.076Z,0.10
2024-04-26T14:28:46.229Z,0.10
2024-04-26T14:31:16.242Z,0.10
2024-04-26T14:33:47.849Z,0.10
2024-04-26T14:36:14.705Z,0.10
2024-04-26T14:38:41.617Z,0.10
2024-04-26T14:41:10.154Z,0.10
2024-04-26T14:43:39.746Z,0.10
2024-04-26T14:46:09.702Z,0.10
2024-04-26T14:48:37.076Z,0.10
2024-04-26T14:51:06.174Z,0.10
2024-04-26T14:53:33.047Z,0.10
2024-04-26T14:56:00.145Z,0.00
2024-04-26T14:58:27.147Z,0.10
2024-04-26T15:00:55.881Z,0.10
2024-04-26T15:03:22.887Z,0.10
2024-04-26T15:05:49.776Z,0.10
2024-04-26T15:08:17.045Z,0.10
2024-04-26T15:10:44.839Z,0.10
2024-04-26T15:13:12.904Z,0.10
2024-04-26T15:15:40.763Z,0.10
2024-04-26T15:18:07.821Z,0.10
2024-04-26T15:20:35.051Z,0.10
2024-04-26T15:23:02.134Z,0.10
2024-04-26T15:25:29.115Z,0.10
2024-04-26T15:27:56.567Z,0.10
2024-04-26T15:30:23.842Z,0.10
2024-04-26T15:32:50.727Z,0.10
2024-04-26T15:35:17.652Z,0.10
2024-04-26T15:37:47.491Z,0.10
2024-04-26T15:40:14.491Z,0.10
2024-04-26T15:42:41.348Z,0.10
2024-04-26T15:45:10.362Z,0.10
2024-04-26T15:47:40.520Z,0.10
2024-04-26T15:50:08.600Z,0.10
2024-04-26T15:52:37.494Z,0.10
2024-04-26T15:55:04.787Z,0.10
2024-04-26T15:57:31.689Z,0.10
2024-04-26T15:59:58.465Z,0.10
2024-04-26T16:02:25.453Z,0.10
2024-04-26T16:04:52.538Z,0.10
2024-04-26T16:07:19.523Z,0.10
2024-04-26T16:09:46.429Z,0.10
2024-04-26T16:12:14.500Z,0.10
2024-04-26T16:14:43.047Z,0.10
2024-04-26T16:17:11.069Z,0.10
2024-04-26T16:19:40.958Z,0.10
2024-04-26T16:22:09.221Z,0.10
2024-04-26T16:24:40.703Z,0.10
2024-04-26T16:27:07.739Z,0.10
2024-04-26T16:29:34.718Z,0.10
2024-04-26T16:32:01.594Z,0.10
2024-04-26T16:34:28.532Z,0.10
2024-04-26T16:36:56.009Z,0.10
2024-04-26T16:39:22.876Z,0.10
2024-04-26T16:41:50.527Z,0.10
2024-04-26T16:44:17.738Z,0.10
2024-04-26T16:46:44.749Z,0.10
2024-04-26T16:49:13.633Z,0.10
2024-04-26T16:51:43.290Z,0.10
2024-04-26T16:54:11.439Z,0.10
2024-04-26T16:56:40.623Z,0.10
2024-04-26T16:59:07.978Z,0.10
2024-04-26T17:01:40.278Z,0.10
2024-04-26T17:04:13.472Z,0.10
2024-04-26T17:06:42.555Z,0.10
2024-04-26T17:09:09.582Z,0.10
2024-04-26T17:11:36.443Z,0.10
2024-04-26T17:14:04.605Z,0.10
2024-04-26T17:16:34.300Z,0.10
2024-04-26T17:19:01.393Z,0.10
2024-04-26T17:21:28.903Z,0.10
2024-04-26T17:23:55.802Z,0.10
2024-04-26T17:26:22.722Z,0.10
2024-04-26T17:28:50.204Z,0.10
2024-04-26T17:31:17.114Z,0.10
2024-04-26T17:33:44.059Z,0.10
2024-04-26T17:36:11.136Z,0.10
2024-04-26T17:38:44.888Z,0.10
2024-04-26T17:41:18.516Z,0.10
2024-04-26T17:43:46.082Z,0.20
2024-04-26T17:46:13.148Z,0.10
2024-04-26T17:48:40.478Z,0.10
2024-04-26T17:51:08.728Z,0.10
2024-04-26T17:53:35.644Z,0.10
2024-04-26T17:56:02.547Z,0.10
2024-04-26T17:58:31.061Z,0.30
2024-04-26T18:00:58.018Z,0.10
2024-04-26T18:03:26.631Z,0.10
2024-04-26T18:05:53.544Z,0.20
2024-04-26T18:08:20.587Z,0.20
2024-04-26T18:10:48.300Z,0.10
2024-04-26T18:13:15.399Z,0.17
2024-04-26T18:15:42.270Z,0.20
2024-04-26T18:18:09.247Z,0.10
2024-04-26T18:20:36.226Z,0.20
2024-04-26T18:23:03.240Z,0.20
2024-04-26T18:25:30.464Z,0.10
2024-04-26T18:27:57.307Z,0.27
2024-04-26T18:30:24.213Z,0.10
2024-04-26T18:32:51.243Z,0.30
2024-04-26T18:35:18.117Z,0.10
2024-04-26T18:37:44.995Z,0.20
2024-04-26T18:40:11.971Z,0.13
2024-04-26T18:42:38.918Z,0.20
2024-04-26T18:45:06.012Z,0.20
2024-04-26T18:47:32.929Z,0.20
2024-04-26T18:49:59.920Z,0.20
2024-04-26T18:52:26.824Z,0.10
2024-04-26T18:54:53.645Z,0.20
2024-04-26T18:57:20.588Z,0.10
2024-04-26T18:59:47.511Z,0.20
2024-04-26T19:02:18.589Z,0.10
2024-04-26T19:04:47.462Z,0.20
2024-04-26T19:07:14.439Z,0.17
2024-04-26T19:09:41.967Z,0.20
2024-04-26T19:12:09.742Z,0.17
2024-04-26T19:14:36.635Z,0.20
2024-04-26T19:17:03.510Z,0.10
2024-04-26T19:19:30.597Z,0.20
2024-04-26T19:21:57.574Z,0.15
2024-04-26T19:24:24.764Z,0.20
2024-04-26T19:26:55.131Z,0.17
2024-04-26T19:29:22.678Z,0.20
2024-04-26T19:31:50.116Z,0.20
2024-04-26T19:34:17.075Z,0.20
2024-04-26T19:36:45.510Z,0.20
2024-04-26T19:39:12.506Z,0.20
2024-04-26T19:41:45.972Z,0.20
2024-04-26T19:44:13.317Z,0.17
2024-04-26T19:46:41.133Z,0.20
2024-04-26T19:49:10.905Z,0.10
2024-04-26T19:51:44.876Z,0.20
2024-04-26T19:54:30.667Z,0.20
2024-04-26T19:56:57.692Z,0.10
2024-04-26T19:59:24.820Z,0.20
2024-04-26T20:01:53.188Z,0.20
2024-04-26T20:04:22.389Z,0.20
2024-04-26T20:06:52.407Z,0.20
2024-04-26T20:09:19.793Z,0.10
2024-04-26T20:11:47.700Z,0.20
2024-04-26T20:14:14.963Z,0.10
2024-04-26T20:16:42.189Z,0.20
2024-04-26T20:19:11.225Z,0.20
2024-04-26T20:21:38.619Z,0.20
2024-04-26T20:24:05.783Z,0.10
2024-04-26T20:26:32.819Z,0.20
2024-04-26T20:29:01.304Z,0.20
2024-04-26T20:31:30.732Z,0.20
2024-04-26T20:33:58.026Z,0.20
2024-04-26T20:36:26.297Z,0.20
2024-04-26T20:38:54.693Z,0.20
2024-04-26T20:41:23.951Z,0.20
2024-04-26T20:43:50.834Z,0.20
2024-04-26T20:46:18.163Z,0.20
2024-04-26T20:48:45.455Z,0.20
2024-04-26T20:51:12.699Z,0.20
2024-04-26T20:53:41.723Z,0.20
2024-04-26T20:56:12.309Z,0.20
2024-04-26T20:58:45.168Z,0.25
2024-04-26T21:01:16.578Z,0.20
2024-04-26T21:03:44.535Z,0.30
2024-04-26T21:06:12.014Z,0.20
2024-04-26T21:08:38.924Z,0.20
2024-04-26T21:11:05.900Z,0.20
2024-04-26T21:13:33.029Z,0.20
2024-04-26T21:16:00.036Z,0.20
2024-04-26T21:18:27.265Z,0.20
2024-04-26T21:20:54.239Z,0.30
2024-04-26T21:23:21.128Z,0.20
2024-04-26T21:25:48.629Z,0.30
2024-04-26T21:28:15.676Z,0.20
2024-04-26T21:30:43.150Z,0.30
2024-04-26T21:33:10.580Z,0.20
2024-04-26T21:35:37.818Z,0.20
2024-04-26T21:38:05.051Z,0.20
2024-04-26T21:40:32.167Z,0.10
2024-04-26T21:42:59.493Z,0.30
2024-04-26T21:45:26.673Z,0.20
2024-04-26T21:47:55.169Z,0.28
2024-04-26T21:50:22.589Z,0.20
2024-04-26T21:52:49.771Z,0.20
2024-04-26T21:55:17.070Z,0.20
2024-04-26T21:57:43.895Z,0.20
2024-04-26T22:00:11.270Z,0.20
2024-04-26T22:02:41.213Z,0.20
2024-04-26T22:05:08.932Z,0.30
2024-04-26T22:07:36.409Z,0.20
2024-04-26T22:10:03.735Z,0.30
2024-04-26T22:12:33.832Z,0.20
2024-04-26T22:15:01.140Z,0.20
2024-04-26T22:17:28.584Z,0.20
2024-04-26T22:19:55.815Z,0.20
2024-04-26T22:22:23.291Z,0.20
2024-04-26T22:24:52.039Z,0.20
2024-04-26T22:27:20.526Z,0.20
2024-04-26T22:29:48.221Z,0.20
2024-04-26T22:32:15.908Z,0.20
2024-04-26T22:34:42.958Z,0.20
2024-04-26T22:37:10.293Z,0.28
2024-04-26T22:39:40.128Z,0.20
2024-04-26T22:42:07.796Z,0.30
2024-04-26T22:44:34.956Z,0.20
2024-04-26T22:47:01.945Z,0.30
2024-04-26T22:49:28.927Z,0.20
2024-04-26T22:51:56.068Z,0.30
2024-04-26T22:54:23.261Z,0.20
2024-04-26T22:56:50.422Z,0.20
2024-04-26T22:59:17.438Z,0.20
2024-04-26T23:01:44.387Z,0.20
2024-04-26T23:04:11.513Z,0.20
2024-04-26T23:06:38.484Z,0.20
2024-04-26T23:09:05.394Z,0.20
2024-04-26T23:11:35.934Z,0.20
2024-04-26T23:14:04.449Z,0.20
2024-04-26T23:16:33.275Z,0.20
2024-04-26T23:19:00.715Z,0.20
2024-04-26T23:21:27.861Z,0.20
2024-04-26T23:23:54.970Z,0.30
2024-04-26T23:26:22.595Z,0.20
2024-04-26T23:28:53.928Z,0.20
2024-04-26T23:31:21.500Z,0.20
2024-04-26T23:33:48.707Z,0.20
2024-04-26T23:36:15.874Z,0.30
2024-04-26T23:38:42.926Z,0.20
2024-04-26T23:41:09.834Z,0.20
2024-04-26T23:43:36.798Z,0.20
2024-04-26T23:46:04.579Z,0.20
2024-04-26T23:48:31.396Z,0.22
2024-04-26T23:50:58.409Z,0.10
2024-04-26T23:53:25.641Z,0.30
2024-04-26T23:55:52.780Z,0.20
2024-04-26T23:58:19.902Z,0.20
